sensor_id;sensor_type;location;lat;lon;timestamp;pressure;altitude;pressure_sealevel;temperature;humidity
62011;BME280;47967;51.756;10.174;2022-09-20T04:02:32;100077.13;;;11.17;84.25
62011;BME280;47967;51.756;10.174;2022-09-20T04:06:48;100079.63;;;11.18;84.13
62011;BME280;47967;51.756;10.174;2022-09-20T04:10:57;100078.09;;;11.09;83.96
62011;BME280;47967;51.756;10.174;2022-09-20T04:15:18;100076.38;;;11.01;84.20
62011;BME280;47967;51.756;10.174;2022-09-20T04:19:29;100085.97;;;11.04;84.44
62011;BME280;47967;51.756;10.174;2022-09-20T04:23:47;100077.41;;;11.00;84.16
62011;BME280;47967;51.756;10.174;2022-09-20T04:27:54;100090.56;;;11.10;84.43
62011;BME280;47967;51.756;10.174;2022-09-20T04:32:02;100095.59;;;11.13;84.30
62011;BME280;47967;51.756;10.174;2022-09-20T04:36:17;100093.84;;;11.05;84.07
62011;BME280;47967;51.756;10.174;2022-09-20T04:40:45;100097.31;;;11.21;83.52
62011;BME280;47967;51.756;10.174;2022-09-20T04:45:17;100098.28;;;11.13;83.56
62011;BME280;47967;51.756;10.174;2022-09-20T04:50:06;100104.41;;;11.00;83.72
62011;BME280;47967;51.756;10.174;2022-09-20T04:54:35;100108.59;;;11.03;83.53
62011;BME280;47967;51.756;10.174;2022-09-20T04:58:48;100109.88;;;11.07;83.38
62011;BME280;47967;51.756;10.174;2022-09-20T05:03:12;100113.81;;;10.83;83.54
62011;BME280;47967;51.756;10.174;2022-09-20T05:07:41;100120.03;;;10.83;83.46
62011;BME280;47967;51.756;10.174;2022-09-20T05:12:14;100122.72;;;10.83;83.55
62011;BME280;47967;51.756;10.174;2022-09-20T05:16:27;100133.47;;;10.77;83.41
62011;BME280;47967;51.756;10.174;2022-09-20T05:20:42;100131.66;;;10.84;83.30
62011;BME280;47967;51.756;10.174;2022-09-20T05:24:59;100131.19;;;11.02;83.48
62011;BME280;47967;51.756;10.174;2022-09-20T05:29:13;100135.00;;;10.86;83.22
62011;BME280;47967;51.756;10.174;2022-09-20T05:33:19;100131.53;;;10.92;83.13
62011;BME280;47967;51.756;10.174;2022-09-20T05:37:34;100132.19;;;10.94;82.54
62011;BME280;47967;51.756;10.174;2022-09-20T05:41:45;100137.91;;;11.06;82.63
62011;BME280;47967;51.756;10.174;2022-09-20T05:46:03;100146.63;;;11.08;82.44
62011;BME280;47967;51.756;10.174;2022-09-20T05:50:27;100152.34;;;10.98;82.37
62011;BME280;47967;51.756;10.174;2022-09-20T05:54:46;100141.34;;;11.21;82.17
62011;BME280;47967;51.756;10.174;2022-09-20T05:58:58;100153.63;;;11.24;81.95
62011;BME280;47967;51.756;10.174;2022-09-20T06:03:12;100153.25;;;11.27;81.79
62011;BME280;47967;51.756;10.174;2022-09-20T06:07:26;100156.34;;;11.52;81.59
62011;BME280;47967;51.756;10.174;2022-09-20T06:11:55;100159.06;;;11.52;81.29
62011;BME280;47967;51.756;10.174;2022-09-20T06:16:01;100169.00;;;11.52;81.05
62011;BME280;47967;51.756;10.174;2022-09-20T06:20:15;100165.69;;;11.50;81.37
62011;BME280;47967;51.756;10.174;2022-09-20T06:24:31;100167.84;;;11.61;81.55
62011;BME280;47967;51.756;10.174;2022-09-20T06:28:38;100179.78;;;11.74;80.90
62011;BME280;47967;51.756;10.174;2022-09-20T06:32:53;100169.09;;;11.65;80.99
62011;BME280;47967;51.756;10.174;2022-09-20T06:37:07;100171.63;;;11.67;80.71
62011;BME280;47967;51.756;10.174;2022-09-20T06:41:33;100177.56;;;11.84;80.61
62011;BME280;47967;51.756;10.174;2022-09-20T06:45:38;100183.44;;;11.94;80.25
62011;BME280;47967;51.756;10.174;2022-09-20T06:49:41;100189.34;;;12.05;80.34
62011;BME280;47967;51.756;10.174;2022-09-20T06:53:46;100187.78;;;12.17;79.76
62011;BME280;47967;51.756;10.174;2022-09-20T06:57:48;100188.66;;;12.24;79.38
62011;BME280;47967;51.756;10.174;2022-09-20T07:01:51;100186.56;;;12.26;79.55
62011;BME280;47967;51.756;10.174;2022-09-20T07:05:54;100192.41;;;12.30;79.35
62011;BME280;47967;51.756;10.174;2022-09-20T07:09:58;100203.56;;;12.13;79.07
62011;BME280;47967;51.756;10.174;2022-09-20T07:14:01;100201.84;;;12.06;79.95
62011;BME280;47967;51.756;10.174;2022-09-20T07:18:04;100212.03;;;12.04;80.58
62011;BME280;47967;51.756;10.174;2022-09-20T07:22:06;100214.34;;;11.85;80.80
62011;BME280;47967;51.756;10.174;2022-09-20T07:26:17;100216.91;;;11.87;80.87
62011;BME280;47967;51.756;10.174;2022-09-20T07:30:20;100223.41;;;12.27;79.95
62011;BME280;47967;51.756;10.174;2022-09-20T07:34:23;100221.06;;;12.17;79.00
62011;BME280;47967;51.756;10.174;2022-09-20T07:38:25;100232.31;;;12.21;79.50
62011;BME280;47967;51.756;10.174;2022-09-20T07:42:29;100224.41;;;12.20;79.53
62011;BME280;47967;51.756;10.174;2022-09-20T07:46:32;100228.22;;;12.32;80.35
62011;BME280;47967;51.756;10.174;2022-09-20T07:50:39;100231.09;;;11.95;81.47
62011;BME280;47967;51.756;10.174;2022-09-20T07:54:42;100251.16;;;11.79;82.32
62011;BME280;47967;51.756;10.174;2022-09-20T07:58:47;100250.00;;;11.67;82.55
62011;BME280;47967;51.756;10.174;2022-09-20T08:02:59;100250.47;;;11.71;83.83
62011;BME280;47967;51.756;10.174;2022-09-20T08:07:01;100252.75;;;11.74;83.63
62011;BME280;47967;51.756;10.174;2022-09-20T08:11:06;100256.09;;;11.97;82.64
62011;BME280;47967;51.756;10.174;2022-09-20T08:15:10;100265.06;;;12.05;81.83
62011;BME280;47967;51.756;10.174;2022-09-20T08:19:14;100269.75;;;12.17;81.52
62011;BME280;47967;51.756;10.174;2022-09-20T08:23:17;100273.84;;;12.07;80.53
62011;BME280;47967;51.756;10.174;2022-09-20T08:27:24;100268.22;;;12.37;80.57
62011;BME280;47967;51.756;10.174;2022-09-20T08:31:29;100268.50;;;12.55;79.90
62011;BME280;47967;51.756;10.174;2022-09-20T08:35:34;100276.41;;;12.50;79.88
62011;BME280;47967;51.756;10.174;2022-09-20T08:39:38;100274.19;;;12.67;80.33
62011;BME280;47967;51.756;10.174;2022-09-20T08:44:01;100279.22;;;12.77;80.13
62011;BME280;47967;51.756;10.174;2022-09-20T08:48:11;100280.41;;;13.23;79.18
62011;BME280;47967;51.756;10.174;2022-09-20T08:52:18;100280.44;;;13.36;77.80
62011;BME280;47967;51.756;10.174;2022-09-20T08:56:25;100298.09;;;13.12;77.59
62011;BME280;47967;51.756;10.174;2022-09-20T09:00:31;100296.56;;;12.89;77.00
62011;BME280;47967;51.756;10.174;2022-09-20T09:04:36;100292.56;;;12.85;77.63
62011;BME280;47967;51.756;10.174;2022-09-20T09:08:38;100289.94;;;13.05;76.88
62011;BME280;47967;51.756;10.174;2022-09-20T09:12:42;100287.97;;;13.41;76.52
62011;BME280;47967;51.756;10.174;2022-09-20T09:16:49;100288.19;;;13.46;77.47
62011;BME280;47967;51.756;10.174;2022-09-20T09:20:53;100294.66;;;13.58;76.21
62011;BME280;47967;51.756;10.174;2022-09-20T09:25:12;100288.00;;;13.48;75.72
62011;BME280;47967;51.756;10.174;2022-09-20T09:29:21;100281.56;;;13.96;75.05
62011;BME280;47967;51.756;10.174;2022-09-20T09:33:26;100284.06;;;13.90;75.05
62011;BME280;47967;51.756;10.174;2022-09-20T09:37:30;100288.22;;;14.00;74.40
62011;BME280;47967;51.756;10.174;2022-09-20T09:41:33;100290.94;;;13.93;73.51
62011;BME280;47967;51.756;10.174;2022-09-20T09:45:37;100282.38;;;14.88;72.81
62011;BME280;47967;51.756;10.174;2022-09-20T09:49:40;100291.53;;;15.01;68.27
62011;BME280;47967;51.756;10.174;2022-09-20T09:54:04;100286.13;;;15.65;67.91
62011;BME280;47967;51.756;10.174;2022-09-20T09:58:15;100288.22;;;15.63;68.57
62011;BME280;47967;51.756;10.174;2022-09-20T10:02:39;100286.31;;;15.38;67.67
62011;BME280;47967;51.756;10.174;2022-09-20T10:06:47;100284.28;;;15.59;67.55
62011;BME280;47967;51.756;10.174;2022-09-20T10:11:08;100283.88;;;15.23;66.32
62011;BME280;47967;51.756;10.174;2022-09-20T10:15:25;100283.44;;;15.58;67.41
62011;BME280;47967;51.756;10.174;2022-09-20T10:19:46;100285.88;;;15.02;67.46
62011;BME280;47967;51.756;10.174;2022-09-20T10:24:02;100284.69;;;14.85;66.72
62011;BME280;47967;51.756;10.174;2022-09-20T10:28:25;100272.34;;;15.28;65.77
62011;BME280;47967;51.756;10.174;2022-09-20T10:32:46;100263.25;;;16.42;64.04
62011;BME280;47967;51.756;10.174;2022-09-20T10:36:53;100264.00;;;16.49;60.27
62011;BME280;47967;51.756;10.174;2022-09-20T10:41:10;100275.91;;;16.11;60.87
62011;BME280;47967;51.756;10.174;2022-09-20T10:45:38;100307.66;;;12.59;78.02
62011;BME280;47967;51.756;10.174;2022-09-20T10:50:17;100301.34;;;11.24;83.89
62011;BME280;47967;51.756;10.174;2022-09-20T10:54:36;100311.53;;;11.07;88.65
62011;BME280;47967;51.756;10.174;2022-09-20T10:58:51;100316.97;;;11.28;88.46
62011;BME280;47967;51.756;10.174;2022-09-20T11:03:11;100314.34;;;11.57;89.13
62011;BME280;47967;51.756;10.174;2022-09-20T11:07:27;100316.75;;;12.16;89.52
62011;BME280;47967;51.756;10.174;2022-09-20T11:11:38;100309.91;;;12.49;88.64
62011;BME280;47967;51.756;10.174;2022-09-20T11:15:45;100316.44;;;13.17;89.41
62011;BME280;47967;51.756;10.174;2022-09-20T11:19:57;100309.50;;;13.69;88.15
62011;BME280;47967;51.756;10.174;2022-09-20T11:24:13;100314.50;;;13.79;86.28
62011;BME280;47967;51.756;10.174;2022-09-20T11:28:19;100318.88;;;13.80;83.21
62011;BME280;47967;51.756;10.174;2022-09-20T11:32:30;100319.31;;;13.97;81.97
62011;BME280;47967;51.756;10.174;2022-09-20T11:36:43;100319.50;;;14.02;79.71
62011;BME280;47967;51.756;10.174;2022-09-20T11:40:52;100318.66;;;14.08;80.52
62011;BME280;47967;51.756;10.174;2022-09-20T11:44:57;100316.16;;;14.27;79.51
62011;BME280;47967;51.756;10.174;2022-09-20T11:49:03;100314.25;;;14.41;79.83
62011;BME280;47967;51.756;10.174;2022-09-20T11:53:20;100314.56;;;14.92;79.03
62011;BME280;47967;51.756;10.174;2022-09-20T11:57:28;100320.25;;;15.61;74.69
62011;BME280;47967;51.756;10.174;2022-09-20T12:01:33;100316.31;;;15.89;73.90
62011;BME280;47967;51.756;10.174;2022-09-20T12:05:39;100316.84;;;15.72;72.77
62011;BME280;47967;51.756;10.174;2022-09-20T12:09:45;100319.59;;;15.65;72.46
62011;BME280;47967;51.756;10.174;2022-09-20T12:13:59;100315.97;;;16.04;72.12
62011;BME280;47967;51.756;10.174;2022-09-20T12:18:07;100314.69;;;16.06;69.30
62011;BME280;47967;51.756;10.174;2022-09-20T12:35:58;100313.31;;;14.87;66.71
62011;BME280;47967;51.756;10.174;2022-09-20T12:40:15;100319.28;;;14.44;68.10
62011;BME280;47967;51.756;10.174;2022-09-20T12:44:26;100306.47;;;14.78;69.23
62011;BME280;47967;51.756;10.174;2022-09-20T12:48:35;100305.50;;;15.04;67.08
62011;BME280;47967;51.756;10.174;2022-09-20T12:52:54;100308.84;;;15.07;64.94
62011;BME280;47967;51.756;10.174;2022-09-20T12:57:15;100308.31;;;15.30;66.28
62011;BME280;47967;51.756;10.174;2022-09-20T13:01:29;100294.78;;;15.16;63.87
62011;BME280;47967;51.756;10.174;2022-09-20T13:05:34;100301.28;;;15.09;60.72
62011;BME280;47967;51.756;10.174;2022-09-20T13:09:39;100293.75;;;15.17;62.58
62011;BME280;47967;51.756;10.174;2022-09-20T13:13:43;100301.22;;;15.22;61.47
62011;BME280;47967;51.756;10.174;2022-09-20T13:17:52;100300.03;;;15.50;62.37
62011;BME280;47967;51.756;10.174;2022-09-20T13:22:01;100294.56;;;15.82;62.06
62011;BME280;47967;51.756;10.174;2022-09-20T13:26:08;100299.72;;;15.97;59.73
62011;BME280;47967;51.756;10.174;2022-09-20T13:30:17;100293.06;;;16.74;60.82
62011;BME280;47967;51.756;10.174;2022-09-20T13:34:23;100291.16;;;17.11;59.85
62011;BME280;47967;51.756;10.174;2022-09-20T13:38:28;100305.72;;;17.17;57.25
62011;BME280;47967;51.756;10.174;2022-09-20T13:42:33;100292.88;;;17.79;58.72
62011;BME280;47967;51.756;10.174;2022-09-20T13:46:42;100293.13;;;17.89;57.27
62011;BME280;47967;51.756;10.174;2022-09-20T13:50:46;100302.88;;;17.42;56.59
62011;BME280;47967;51.756;10.174;2022-09-20T13:54:54;100303.75;;;16.13;59.92
62011;BME280;47967;51.756;10.174;2022-09-20T13:59:03;100319.16;;;15.68;62.70
62011;BME280;47967;51.756;10.174;2022-09-20T14:03:06;100312.75;;;15.56;63.32
62011;BME280;47967;51.756;10.174;2022-09-20T14:07:13;100312.66;;;16.02;63.85
62011;BME280;47967;51.756;10.174;2022-09-20T14:11:18;100307.75;;;16.10;61.81
62011;BME280;47967;51.756;10.174;2022-09-20T14:15:22;100303.34;;;16.72;60.04
62011;BME280;47967;51.756;10.174;2022-09-20T14:19:28;100310.06;;;17.06;58.18
62011;BME280;47967;51.756;10.174;2022-09-20T14:23:48;100304.69;;;18.03;56.04
62011;BME280;47967;51.756;10.174;2022-09-20T14:28:05;100300.50;;;18.48;54.89
62011;BME280;47967;51.756;10.174;2022-09-20T14:32:27;100306.00;;;19.00;54.94
62011;BME280;47967;51.756;10.174;2022-09-20T14:36:33;100307.03;;;19.40;52.34
62011;BME280;47967;51.756;10.174;2022-09-20T14:40:42;100299.81;;;19.80;52.06
62011;BME280;47967;51.756;10.174;2022-09-20T14:44:49;100306.84;;;19.01;51.80
62011;BME280;47967;51.756;10.174;2022-09-20T14:48:51;100305.41;;;18.22;54.59
62011;BME280;47967;51.756;10.174;2022-09-20T14:53:13;100315.56;;;16.25;58.11
62011;BME280;47967;51.756;10.174;2022-09-20T14:57:23;100322.69;;;15.69;61.50
62011;BME280;47967;51.756;10.174;2022-09-20T15:01:26;100330.16;;;15.48;62.46
62011;BME280;47967;51.756;10.174;2022-09-20T15:05:28;100326.22;;;15.44;62.99
62011;BME280;47967;51.756;10.174;2022-09-20T15:09:32;100325.44;;;15.37;62.46
62011;BME280;47967;51.756;10.174;2022-09-20T15:13:36;100322.53;;;15.32;61.47
62011;BME280;47967;51.756;10.174;2022-09-20T15:17:39;100323.97;;;15.34;61.67
62011;BME280;47967;51.756;10.174;2022-09-20T15:21:42;100321.78;;;15.50;61.89
62011;BME280;47967;51.756;10.174;2022-09-20T15:25:48;100322.53;;;15.64;61.99
62011;BME280;47967;51.756;10.174;2022-09-20T15:29:52;100338.78;;;15.45;62.82
62011;BME280;47967;51.756;10.174;2022-09-20T15:33:56;100340.78;;;15.18;63.98
62011;BME280;47967;51.756;10.174;2022-09-20T15:37:58;100360.81;;;14.78;65.41
62011;BME280;47967;51.756;10.174;2022-09-20T15:42:01;100354.38;;;14.19;65.15
62011;BME280;47967;51.756;10.174;2022-09-20T15:46:16;100348.34;;;13.97;65.88
62011;BME280;47967;51.756;10.174;2022-09-20T15:50:20;100350.84;;;13.91;66.19
62011;BME280;47967;51.756;10.174;2022-09-20T15:54:23;100346.00;;;13.80;66.53
62011;BME280;47967;51.756;10.174;2022-09-20T15:58:27;100343.91;;;13.69;65.70
62011;BME280;47967;51.756;10.174;2022-09-20T16:02:37;100353.25;;;13.46;66.51
62011;BME280;47967;51.756;10.174;2022-09-20T16:06:41;100356.16;;;13.44;66.70
62011;BME280;47967;51.756;10.174;2022-09-20T16:10:54;100354.09;;;13.53;65.98
62011;BME280;47967;51.756;10.174;2022-09-20T16:14:57;100356.00;;;13.59;65.89
62011;BME280;47967;51.756;10.174;2022-09-20T16:19:01;100358.50;;;13.68;66.25
62011;BME280;47967;51.756;10.174;2022-09-20T16:23:21;100368.13;;;13.77;66.46
62011;BME280;47967;51.756;10.174;2022-09-20T16:27:26;100365.84;;;13.87;66.96
62011;BME280;47967;51.756;10.174;2022-09-20T16:31:33;100377.75;;;14.00;67.07
62011;BME280;47967;51.756;10.174;2022-09-20T16:35:41;100382.34;;;14.13;67.47
62011;BME280;47967;51.756;10.174;2022-09-20T16:39:43;100384.66;;;14.36;67.44
62011;BME280;47967;51.756;10.174;2022-09-20T16:43:46;100387.53;;;14.54;69.17
62011;BME280;47967;51.756;10.174;2022-09-20T16:47:50;100395.50;;;14.49;69.44
62011;BME280;47967;51.756;10.174;2022-09-20T16:51:54;100402.38;;;14.45;70.59
62011;BME280;47967;51.756;10.174;2022-09-20T16:55:56;100400.94;;;14.22;71.11
62011;BME280;47967;51.756;10.174;2022-09-20T17:00:02;100410.31;;;14.06;71.54
62011;BME280;47967;51.756;10.174;2022-09-20T17:04:05;100421.38;;;13.91;71.89
62011;BME280;47967;51.756;10.174;2022-09-20T17:10:11;100423.97;;;13.58;73.34
62011;BME280;47967;51.756;10.174;2022-09-20T17:14:14;100426.03;;;13.49;73.75
62011;BME280;47967;51.756;10.174;2022-09-20T17:18:17;100432.72;;;13.47;74.01
62011;BME280;47967;51.756;10.174;2022-09-20T17:22:20;100439.31;;;13.37;74.15
62011;BME280;47967;51.756;10.174;2022-09-20T17:26:26;100435.50;;;13.25;73.33
62011;BME280;47967;51.756;10.174;2022-09-20T17:30:31;100444.94;;;13.01;71.37
62011;BME280;47967;51.756;10.174;2022-09-20T17:34:34;100444.31;;;12.98;71.22
62011;BME280;47967;51.756;10.174;2022-09-20T17:38:37;100448.69;;;13.00;72.53
62011;BME280;47967;51.756;10.174;2022-09-20T17:42:41;100446.56;;;12.88;72.23
62011;BME280;47967;51.756;10.174;2022-09-20T17:46:45;100456.72;;;12.86;72.02
62011;BME280;47967;51.756;10.174;2022-09-20T17:50:56;100468.13;;;12.75;72.04
62011;BME280;47967;51.756;10.174;2022-09-20T17:54:58;100464.59;;;12.74;72.92
62011;BME280;47967;51.756;10.174;2022-09-20T17:59:04;100481.59;;;12.68;73.35
62011;BME280;47967;51.756;10.174;2022-09-20T18:03:07;100479.38;;;12.50;74.37
62011;BME280;47967;51.756;10.174;2022-09-20T18:07:10;100471.84;;;12.24;75.66
62011;BME280;47967;51.756;10.174;2022-09-20T18:11:13;100480.81;;;12.03;77.69
62011;BME280;47967;51.756;10.174;2022-09-20T18:15:17;100486.16;;;11.81;79.22
62011;BME280;47967;51.756;10.174;2022-09-20T18:19:20;100495.53;;;11.63;79.85
62011;BME280;47967;51.756;10.174;2022-09-20T18:23:23;100499.06;;;11.49;80.27
62011;BME280;47967;51.756;10.174;2022-09-20T18:27:25;100506.25;;;11.42;81.06
62011;BME280;47967;51.756;10.174;2022-09-20T18:31:31;100511.84;;;11.25;80.67
62011;BME280;47967;51.756;10.174;2022-09-20T18:35:36;100517.31;;;11.02;80.57
62011;BME280;47967;51.756;10.174;2022-09-20T18:39:42;100515.34;;;10.96;80.27
62011;BME280;47967;51.756;10.174;2022-09-20T18:43:45;100524.94;;;10.83;80.09
62011;BME280;47967;51.756;10.174;2022-09-20T18:47:51;100530.94;;;10.70;80.31
62011;BME280;47967;51.756;10.174;2022-09-20T18:51:57;100525.78;;;10.61;80.84
62011;BME280;47967;51.756;10.174;2022-09-20T18:56:05;100528.38;;;10.54;81.24
62011;BME280;47967;51.756;10.174;2022-09-20T19:00:08;100535.25;;;10.33;81.62
62011;BME280;47967;51.756;10.174;2022-09-20T19:04:33;100539.72;;;10.18;82.16
62011;BME280;47967;51.756;10.174;2022-09-20T19:08:44;100546.53;;;10.05;82.55
62011;BME280;47967;51.756;10.174;2022-09-20T19:12:56;100545.94;;;9.95;82.68
62011;BME280;47967;51.756;10.174;2022-09-20T19:17:02;100558.63;;;9.86;83.14
62011;BME280;47967;51.756;10.174;2022-09-20T19:21:16;100557.97;;;9.76;82.58
62011;BME280;47967;51.756;10.174;2022-09-20T19:25:25;100564.25;;;9.68;82.56
62011;BME280;47967;51.756;10.174;2022-09-20T19:29:33;100570.38;;;9.54;82.94
62011;BME280;47967;51.756;10.174;2022-09-20T19:33:37;100569.69;;;9.43;83.20
62011;BME280;47967;51.756;10.174;2022-09-20T19:37:53;100584.72;;;9.38;83.62
62011;BME280;47967;51.756;10.174;2022-09-20T19:42:04;100583.22;;;9.27;83.59
62011;BME280;47967;51.756;10.174;2022-09-20T19:46:19;100593.00;;;9.28;84.12
62011;BME280;47967;51.756;10.174;2022-09-20T19:50:31;100602.75;;;9.21;83.52
62011;BME280;47967;51.756;10.174;2022-09-20T19:54:38;100607.81;;;9.16;83.65
62011;BME280;47967;51.756;10.174;2022-09-20T19:58:46;100607.81;;;9.07;84.62
62011;BME280;47967;51.756;10.174;2022-09-20T20:02:53;100606.31;;;8.96;84.21
62011;BME280;47967;51.756;10.174;2022-09-20T20:07:01;100607.81;;;8.66;85.44
62011;BME280;47967;51.756;10.174;2022-09-20T20:11:10;100611.84;;;8.70;86.39
62011;BME280;47967;51.756;10.174;2022-09-20T20:15:20;100614.88;;;8.67;86.35
62011;BME280;47967;51.756;10.174;2022-09-20T20:19:41;100610.84;;;8.71;86.16
62011;BME280;47967;51.756;10.174;2022-09-20T20:23:56;100611.84;;;8.70;86.36
62011;BME280;47967;51.756;10.174;2022-09-20T20:28:07;100602.59;;;8.64;86.41
62011;BME280;47967;51.756;10.174;2022-09-20T20:32:10;100611.16;;;8.60;86.11
62011;BME280;47967;51.756;10.174;2022-09-20T20:36:12;100613.28;;;8.40;86.36
62011;BME280;47967;51.756;10.174;2022-09-20T20:40:15;100616.81;;;8.40;86.69
62011;BME280;47967;51.756;10.174;2022-09-20T20:44:19;100625.22;;;8.45;86.33
62011;BME280;47967;51.756;10.174;2022-09-20T20:48:22;100630.97;;;8.42;86.26
62011;BME280;47967;51.756;10.174;2022-09-20T20:52:25;100628.56;;;8.31;85.99
62011;BME280;47967;51.756;10.174;2022-09-20T20:56:28;100640.00;;;8.33;86.16
